West Yellowstone, MT (59758)

4:10 PM MST on February 07, 2016 (GMT -0700)
Lower Beartrap | | Change Station
CLOSE
Current Station
Personal Weather Station
Location: West Yellowstone, MT
Elevation: 6565 ft
Nearby Weather Stations

Elev 6565 ft 44.79 °N, 111.14 °W | Updated 10 minutes ago

Partly Cloudy
Partly Cloudy
33.6 °F
Feels Like 34 °F
N
0.0
Wind Variable Wind from North
Gusts 4.5 mph

Today
High -- | Low -- °F
--% Chance of Precip.
Yesterday
High -- | Low -- °F
Precip. -- in
Pressure 30.63 in
Visibility -9999.0 miles
Clouds
Windchill 34 °F
Dew Point 18 °F
Humidity 53%
Rainfall 0.00 in
Snow Depth Not available.
7:36 AM 5:41 PM
Waning Crescent, 1% visible
METAR KP60 072256Z AUTO VRB05KT M02/M13 A3047 RMK AO1 SLP372 T10171128
Pressure 30.63 in
Visibility -9999.0 miles
Clouds
Windchill 34 °F
Dew Point 18 °F
Humidity 53%
Rainfall 0.00 in
Snow Depth Not available.
7:36 AM 5:41 PM
Waning Crescent, 1% visible
METAR KP60 072256Z AUTO VRB05KT M02/M13 A3047 RMK AO1 SLP372 T10171128

10-Day Weather Forecast

Almanac

Astronomy

Feb. 07, 2016 Rise Set
Actual Time
Civil Twilight
Nautical Twilight
Astronomical Twilight
Moon
Length of Visible Light
Length of Day
Tomorrow will be .
, % of the Moon is Illuminated

Today's Extremes

State Highs State Lows

Community

WunderPhotos

Upload Photos

1,891,325 photos uploaded!

WunderBlog® & News

Nearby

Air Quality

  Air Quality AQ Index Pollutant
Not available.

Snow Depth

Station Depth Elevation

Earthquake Activity

City Distance Mag. Time & Date
Minimum magnitude displayed is 2.5.

Coastal Water Temperatures

Place Temperature

Stations

Nearby Weather Stations

Station Location Temp. Windchill Dew Point Humidity Wind Precip. Elev Updated Type
                   

Watches & Warnings

There are currently no watches in effect.